createdAt,value
2023-04-18T00:01:09.987Z,10.95
2023-04-18T00:03:40.979Z,14.60
2023-04-18T00:06:08.580Z,18.02
2023-04-18T00:08:36.486Z,19.23
2023-04-18T00:11:03.896Z,17.58
2023-04-18T00:13:31.276Z,14.52
2023-04-18T00:15:58.619Z,14.63
2023-04-18T00:18:27.150Z,15.05
2023-04-18T00:20:54.884Z,14.32
2023-04-18T00:23:22.415Z,12.32
2023-04-18T00:25:49.786Z,13.15
2023-04-18T00:28:17.175Z,11.32
2023-04-18T00:30:45.374Z,14.82
2023-04-18T00:33:12.826Z,13.45
2023-04-18T00:35:40.304Z,16.30
2023-04-18T00:38:08.440Z,12.68
2023-04-18T00:40:36.261Z,18.23
2023-04-18T00:43:03.657Z,11.93
2023-04-18T00:45:31.186Z,12.57
2023-04-18T00:47:58.654Z,13.85
2023-04-18T00:50:26.679Z,16.35
2023-04-18T00:52:54.617Z,13.38
2023-04-18T00:55:22.477Z,14.00
2023-04-18T00:57:50.591Z,12.50
2023-04-18T01:00:18.111Z,14.02
2023-04-18T01:02:47.067Z,15.57
2023-04-18T01:05:14.657Z,12.27
2023-04-18T01:07:42.914Z,14.30
2023-04-18T01:10:10.811Z,11.35
2023-04-18T01:12:38.419Z,13.52
2023-04-18T01:15:06.675Z,10.80
2023-04-18T01:17:35.674Z,11.90
2023-04-18T01:20:06.227Z,11.50
2023-04-18T01:22:33.887Z,10.35
2023-04-18T01:25:06.181Z,15.85
2023-04-18T01:27:33.639Z,10.60
2023-04-18T01:30:01.182Z,10.32
2023-04-18T01:32:30.638Z,13.40
2023-04-18T01:34:57.983Z,10.98
2023-04-18T01:37:25.487Z,10.15
2023-04-18T01:39:53.814Z,11.73
2023-04-18T01:42:21.153Z,9.35
2023-04-18T01:44:48.485Z,10.55
2023-04-18T01:47:15.807Z,10.52
2023-04-18T01:49:47.978Z,8.52
2023-04-18T01:52:16.132Z,11.55
2023-04-18T01:54:43.485Z,10.52
2023-04-18T01:57:10.830Z,11.40
2023-04-18T01:59:38.734Z,9.05
2023-04-18T02:02:06.200Z,11.25
2023-04-18T02:04:33.613Z,10.45
2023-04-18T02:07:01.084Z,11.02
2023-04-18T02:09:28.538Z,9.90
2023-04-18T02:11:59.257Z,9.40
2023-04-18T02:14:28.243Z,11.25
2023-04-18T02:16:55.607Z,9.38
2023-04-18T02:19:24.293Z,9.73
2023-04-18T02:21:51.892Z,11.35
2023-04-18T02:24:19.390Z,7.95
2023-04-18T02:26:46.943Z,9.68
2023-04-18T02:29:14.369Z,9.95
2023-04-18T02:31:42.163Z,9.10
2023-04-18T02:34:09.608Z,10.23
2023-04-18T02:36:37.003Z,9.30
2023-04-18T02:39:04.352Z,9.68
2023-04-18T02:41:31.750Z,7.53
2023-04-18T02:43:59.590Z,9.50
2023-04-18T02:46:27.132Z,9.27
2023-04-18T02:48:54.633Z,10.23
2023-04-18T02:51:25.023Z,9.48
2023-04-18T02:53:55.069Z,8.23
2023-04-18T02:56:23.115Z,9.27
2023-04-18T02:59:09.212Z,8.43
2023-04-18T03:01:52.388Z,9.73
2023-04-18T03:04:22.193Z,9.25
2023-04-18T03:06:59.521Z,8.73
2023-04-18T03:09:28.761Z,7.45
2023-04-18T03:12:02.431Z,8.38
2023-04-18T03:14:31.852Z,10.65
2023-04-18T03:17:00.433Z,16.73
2023-04-18T03:19:33.612Z,10.48
2023-04-18T03:22:11.561Z,11.13
2023-04-18T03:24:46.355Z,12.05
2023-04-18T03:27:14.731Z,13.25
2023-04-18T03:29:44.196Z,6.82
2023-04-18T03:32:12.595Z,10.32
2023-04-18T03:34:40.017Z,9.48
2023-04-18T03:37:08.852Z,10.20
2023-04-18T03:39:41.841Z,10.07
2023-04-18T03:42:09.435Z,9.25
2023-04-18T03:44:36.787Z,12.40
2023-04-18T03:47:04.893Z,9.63
2023-04-18T03:49:34.754Z,11.75
2023-04-18T03:52:03.621Z,10.73
2023-04-18T03:54:31.063Z,11.98
2023-04-18T03:56:59.422Z,9.82
2023-04-18T03:59:27.656Z,14.45
2023-04-18T04:01:56.309Z,11.88
2023-04-18T04:04:23.819Z,10.90
2023-04-18T04:06:51.629Z,9.20
2023-04-18T04:09:19.070Z,10.38
2023-04-18T04:11:46.496Z,9.05
2023-04-18T04:14:15.658Z,12.40
2023-04-18T04:16:46.181Z,16.63
2023-04-18T04:19:16.389Z,12.45
2023-04-18T04:21:51.890Z,11.38
2023-04-18T04:24:20.491Z,10.55
2023-04-18T04:26:50.731Z,14.80
2023-04-18T04:29:21.621Z,14.30
2023-04-18T04:31:49.644Z,11.02
2023-04-18T04:34:26.805Z,11.27
2023-04-18T04:36:55.038Z,9.43
2023-04-18T04:39:24.023Z,9.65
2023-04-18T04:42:16.683Z,11.10
2023-04-18T04:45:00.264Z,10.68
2023-04-18T04:47:27.938Z,10.68
2023-04-18T04:49:55.368Z,10.05
2023-04-18T04:52:22.730Z,8.98
2023-04-18T04:54:51.783Z,11.63
2023-04-18T04:57:21.074Z,10.10
2023-04-18T04:59:48.684Z,10.57
2023-04-18T05:02:16.709Z,14.75
2023-04-18T05:04:44.151Z,12.20
2023-04-18T05:07:11.503Z,14.45
2023-04-18T05:09:38.896Z,13.50
2023-04-18T05:12:06.479Z,13.55
2023-04-18T05:14:33.869Z,10.13
2023-04-18T05:17:01.334Z,12.27
2023-04-18T05:19:28.712Z,10.25
2023-04-18T05:21:56.388Z,10.55
2023-04-18T05:24:23.767Z,12.85
2023-04-18T05:26:51.412Z,7.25
2023-04-18T05:29:18.804Z,9.48
2023-04-18T05:31:46.161Z,10.63
2023-04-18T05:34:14.207Z,10.88
2023-04-18T05:36:41.773Z,11.38
2023-04-18T05:39:09.150Z,11.38
2023-04-18T05:41:36.510Z,11.40
2023-04-18T05:44:16.815Z,12.02
2023-04-18T05:46:44.464Z,9.48
2023-04-18T05:49:12.494Z,11.80
2023-04-18T05:51:40.084Z,17.50
2023-04-18T05:54:07.434Z,9.65
2023-04-18T05:56:34.821Z,9.23
2023-04-18T05:59:02.339Z,10.15
2023-04-18T06:01:29.876Z,11.63
2023-04-18T06:03:57.509Z,10.50
2023-04-18T06:06:25.822Z,11.68
2023-04-18T06:08:53.886Z,12.73
2023-04-18T06:11:21.616Z,12.18
2023-04-18T06:13:49.092Z,10.75
2023-04-18T06:16:16.448Z,12.48
2023-04-18T06:18:43.896Z,13.30
2023-04-18T06:21:11.329Z,7.72
2023-04-18T06:23:38.685Z,16.45
2023-04-18T06:26:07.443Z,12.85
2023-04-18T06:28:35.066Z,9.48
2023-04-18T06:31:02.666Z,10.48
2023-04-18T06:33:30.942Z,12.18
2023-04-18T06:35:58.484Z,11.00
2023-04-18T06:38:26.174Z,11.52
2023-04-18T06:40:53.750Z,11.25
2023-04-18T06:43:22.124Z,14.00
2023-04-18T06:45:51.656Z,12.77
2023-04-18T06:48:19.071Z,12.05
2023-04-18T06:50:46.704Z,11.27
2023-04-18T06:53:14.992Z,11.60
2023-04-18T06:55:42.483Z,11.93
2023-04-18T06:58:10.184Z,10.23
2023-04-18T07:00:37.594Z,12.23
2023-04-18T07:03:11.457Z,9.88
2023-04-18T07:05:39.831Z,10.05
2023-04-18T07:08:08.099Z,8.77
2023-04-18T07:10:35.436Z,9.80
2023-04-18T07:13:03.014Z,11.23
2023-04-18T07:15:30.707Z,11.85
2023-04-18T07:17:58.186Z,8.95
2023-04-18T07:20:25.579Z,14.43
2023-04-18T07:22:53.011Z,10.50
2023-04-18T07:25:20.497Z,8.43
2023-04-18T07:27:48.068Z,10.68
2023-04-18T07:30:15.761Z,9.95
2023-04-18T07:32:43.215Z,12.02
2023-04-18T07:35:10.951Z,10.13
2023-04-18T07:37:38.610Z,11.45
2023-04-18T07:40:07.603Z,9.90
2023-04-18T07:42:38.035Z,8.98
2023-04-18T07:45:06.264Z,10.93
2023-04-18T07:47:33.945Z,12.00
2023-04-18T07:50:01.730Z,13.65
2023-04-18T07:52:29.208Z,9.93
2023-04-18T07:54:56.601Z,10.95
2023-04-18T07:57:23.966Z,12.63
2023-04-18T07:59:53.783Z,6.85
2023-04-18T08:02:21.623Z,10.15
2023-04-18T08:04:50.062Z,10.00
2023-04-18T08:07:17.634Z,9.55
2023-04-18T08:09:45.024Z,11.90
2023-04-18T08:12:12.428Z,8.90
2023-04-18T08:14:39.760Z,9.07
2023-04-18T08:17:07.191Z,9.20
2023-04-18T08:19:34.528Z,10.75
2023-04-18T08:22:09.392Z,8.55
2023-04-18T08:24:42.878Z,9.02
2023-04-18T08:27:15.962Z,9.60
2023-04-18T08:29:43.346Z,6.55
2023-04-18T08:32:11.052Z,9.45
2023-04-18T08:34:38.458Z,11.05
2023-04-18T08:37:07.329Z,8.43
2023-04-18T08:39:35.424Z,7.72
2023-04-18T08:42:06.351Z,10.23
2023-04-18T08:44:34.266Z,8.70
2023-04-18T08:47:01.745Z,10.63
2023-04-18T08:49:31.365Z,8.77
2023-04-18T08:52:01.174Z,8.65
2023-04-18T08:54:30.492Z,8.50
2023-04-18T08:57:08.825Z,7.10
2023-04-18T08:59:36.400Z,7.05
2023-04-18T09:02:06.354Z,8.20
2023-04-18T09:04:44.869Z,7.30
2023-04-18T09:07:14.533Z,7.00
2023-04-18T09:09:50.834Z,7.32
2023-04-18T09:12:29.559Z,7.70
2023-04-18T09:15:09.482Z,7.75
2023-04-18T09:17:43.572Z,7.82
2023-04-18T09:20:12.286Z,8.75
2023-04-18T09:22:48.652Z,6.80
2023-04-18T09:25:29.596Z,8.05
2023-04-18T09:28:01.507Z,9.30
2023-04-18T09:30:34.927Z,8.40
2023-04-18T09:33:06.430Z,7.20
2023-04-18T09:35:34.657Z,7.93
2023-04-18T09:38:02.213Z,7.63
2023-04-18T09:40:30.952Z,6.97
2023-04-18T09:42:58.438Z,6.80
2023-04-18T09:45:26.595Z,6.78
2023-04-18T09:47:55.886Z,7.45
2023-04-18T09:50:23.413Z,5.63
2023-04-18T09:52:50.847Z,10.70
2023-04-18T09:55:19.407Z,8.20
2023-04-18T09:57:48.726Z,7.20
2023-04-18T10:00:24.861Z,7.50
2023-04-18T10:02:59.452Z,9.30
2023-04-18T10:08:03.967Z,6.72
2023-04-18T10:10:32.308Z,7.68
2023-04-18T10:13:05.401Z,6.78
2023-04-18T10:15:33.377Z,5.97
2023-04-18T10:18:05.894Z,6.97
2023-04-18T10:20:35.260Z,7.47
2023-04-18T10:23:31.010Z,7.45
2023-04-18T10:25:59.435Z,11.02
2023-04-18T10:28:28.157Z,7.40
2023-04-18T10:31:03.646Z,7.03
2023-04-18T10:33:36.051Z,7.65
2023-04-18T10:36:09.587Z,6.85
2023-04-18T10:38:45.227Z,6.70
2023-04-18T10:41:26.731Z,4.72
2023-04-18T10:44:09.549Z,7.22
2023-04-18T10:46:37.652Z,9.38
2023-04-18T10:49:23.287Z,6.72
2023-04-18T10:51:55.703Z,7.03
2023-04-18T10:54:23.088Z,7.82
2023-04-18T10:56:58.495Z,6.97
2023-04-18T10:59:27.156Z,7.25
2023-04-18T11:02:05.088Z,7.97
2023-04-18T11:04:32.728Z,7.32
2023-04-18T11:07:00.225Z,7.80
2023-04-18T11:09:27.664Z,7.68
2023-04-18T11:12:09.365Z,6.32
2023-04-18T11:14:44.683Z,6.30
2023-04-18T11:17:22.160Z,6.13
2023-04-18T11:19:50.317Z,6.78
2023-04-18T11:22:18.917Z,5.90
2023-04-18T11:24:46.519Z,5.57
2023-04-18T11:27:14.430Z,7.15
2023-04-18T11:29:41.910Z,6.28
2023-04-18T11:32:09.731Z,5.90
2023-04-18T11:34:37.062Z,7.35
2023-04-18T11:37:08.492Z,6.47
2023-04-18T11:39:42.375Z,7.10
2023-04-18T11:42:10.139Z,7.18
2023-04-18T11:44:39.859Z,8.20
2023-04-18T11:47:23.968Z,7.35
2023-04-18T11:50:02.756Z,8.90
2023-04-18T11:52:31.661Z,7.30
2023-04-18T11:55:14.896Z,7.47
2023-04-18T11:57:42.397Z,8.00
2023-04-18T12:00:12.497Z,10.93
2023-04-18T12:02:45.939Z,8.90
2023-04-18T12:05:27.405Z,8.55
2023-04-18T12:07:55.823Z,8.95
2023-04-18T12:10:26.551Z,9.90
2023-04-18T12:12:56.193Z,9.75
2023-04-18T12:15:28.126Z,9.13
2023-04-18T12:18:04.068Z,7.60
2023-04-18T12:20:37.664Z,8.45
2023-04-18T12:23:05.452Z,13.18
2023-04-18T12:25:33.465Z,9.15
2023-04-18T12:28:04.065Z,7.07
2023-04-18T12:30:36.003Z,9.23
2023-04-18T12:33:05.084Z,12.18
2023-04-18T12:35:32.921Z,8.70
2023-04-18T12:38:02.057Z,8.52
2023-04-18T12:40:30.069Z,10.40
2023-04-18T12:42:57.511Z,13.13
2023-04-18T12:45:25.062Z,8.93
2023-04-18T12:47:53.688Z,9.32
2023-04-18T12:50:26.695Z,10.18
2023-04-18T12:52:55.822Z,9.38
2023-04-18T12:55:23.363Z,8.88
2023-04-18T12:57:54.167Z,10.38
2023-04-18T13:00:23.647Z,9.57
2023-04-18T13:02:52.482Z,11.55
2023-04-18T13:05:22.201Z,10.73
2023-04-18T13:07:58.516Z,11.18
2023-04-18T13:10:29.281Z,9.10
2023-04-18T13:12:56.664Z,9.85
2023-04-18T13:15:24.167Z,12.77
2023-04-18T13:17:51.720Z,12.68
2023-04-18T13:20:19.567Z,11.70
2023-04-18T13:22:46.990Z,10.40
2023-04-18T13:25:14.392Z,10.45
2023-04-18T13:27:42.249Z,12.38
2023-04-18T13:30:11.037Z,11.10
2023-04-18T13:32:40.298Z,10.45
2023-04-18T13:35:09.039Z,11.43
2023-04-18T13:37:37.956Z,13.40
2023-04-18T13:40:06.606Z,12.15
2023-04-18T13:42:35.620Z,12.10
2023-04-18T13:45:03.256Z,11.48
2023-04-18T13:47:30.754Z,12.88
2023-04-18T13:49:58.416Z,13.88
2023-04-18T13:52:26.243Z,16.00
2023-04-18T13:54:53.648Z,11.93
2023-04-18T13:57:21.906Z,13.27
2023-04-18T13:59:49.451Z,13.30
2023-04-18T14:02:17.017Z,11.63
2023-04-18T14:04:44.617Z,9.90
2023-04-18T14:07:12.190Z,11.00
2023-04-18T14:09:39.534Z,11.55
2023-04-18T14:12:07.189Z,13.80
2023-04-18T14:14:34.674Z,10.90
2023-04-18T14:17:02.068Z,11.80
2023-04-18T14:19:29.409Z,11.43
2023-04-18T14:21:56.821Z,11.90
2023-04-18T14:24:24.199Z,12.57
2023-04-18T14:26:51.635Z,11.45
2023-04-18T14:29:19.033Z,11.80
2023-04-18T14:31:46.538Z,12.23
2023-04-18T14:34:13.983Z,11.88
2023-04-18T14:36:41.480Z,12.57
2023-04-18T14:39:08.979Z,10.77
2023-04-18T14:41:36.412Z,10.93
2023-04-18T14:44:04.230Z,10.23
2023-04-18T14:46:31.697Z,10.57
2023-04-18T14:48:59.756Z,12.73
2023-04-18T14:51:29.257Z,13.38
2023-04-18T14:53:56.645Z,13.35
2023-04-18T14:56:24.418Z,8.70
2023-04-18T14:58:52.266Z,12.15
2023-04-18T15:01:19.743Z,12.43
2023-04-18T15:03:47.399Z,12.18
2023-04-18T15:06:14.942Z,12.65
2023-04-18T15:08:44.241Z,10.10
2023-04-18T15:11:12.150Z,9.43
2023-04-18T15:13:40.146Z,13.85
2023-04-18T15:16:07.874Z,13.48
2023-04-18T15:18:35.357Z,16.60
2023-04-18T15:21:02.949Z,13.38
2023-04-18T15:23:30.337Z,10.93
2023-04-18T15:25:59.052Z,10.95
2023-04-18T15:28:26.434Z,12.15
2023-04-18T15:30:53.872Z,12.32
2023-04-18T15:33:21.803Z,14.38
2023-04-18T15:35:49.194Z,12.00
2023-04-18T15:38:16.527Z,10.52
2023-04-18T15:40:44.654Z,13.27
2023-04-18T15:43:13.785Z,11.75
2023-04-18T15:45:41.358Z,11.35
2023-04-18T15:48:08.810Z,11.18
2023-04-18T15:50:39.164Z,11.48
2023-04-18T15:53:06.586Z,11.88
2023-04-18T15:55:34.424Z,10.98
2023-04-18T15:58:01.872Z,12.32
2023-04-18T16:00:29.222Z,10.05
2023-04-18T16:03:04.948Z,10.70
2023-04-18T16:05:32.972Z,12.23
2023-04-18T16:08:01.297Z,14.38
2023-04-18T16:10:28.744Z,11.75
2023-04-18T16:12:59.504Z,8.75
2023-04-18T16:15:27.066Z,8.20
2023-04-18T16:17:54.943Z,9.80
2023-04-18T16:20:23.075Z,9.93
2023-04-18T16:22:50.768Z,10.38
2023-04-18T16:25:18.950Z,10.00
2023-04-18T16:27:46.285Z,11.60
2023-04-18T16:30:13.989Z,11.65
2023-04-18T16:32:41.319Z,11.50
2023-04-18T16:35:10.875Z,10.15
2023-04-18T16:37:41.502Z,10.50
2023-04-18T16:40:10.196Z,9.50
2023-04-18T16:42:38.047Z,12.23
2023-04-18T16:45:07.483Z,10.48
2023-04-18T16:47:34.899Z,10.90
2023-04-18T16:50:02.269Z,10.27
2023-04-18T16:52:30.945Z,12.57
2023-04-18T16:54:58.410Z,11.57
2023-04-18T16:57:25.885Z,11.45
2023-04-18T16:59:53.280Z,15.05
2023-04-18T17:02:20.825Z,9.68
2023-04-18T17:04:49.020Z,10.88
2023-04-18T17:07:16.359Z,11.00
2023-04-18T17:09:43.708Z,9.82
2023-04-18T17:12:11.086Z,10.63
2023-04-18T17:14:38.360Z,9.90
2023-04-18T17:17:06.079Z,10.27
2023-04-18T17:19:33.367Z,9.50
2023-04-18T17:22:00.698Z,8.60
2023-04-18T17:24:28.001Z,10.07
2023-04-18T17:26:57.596Z,8.35
2023-04-18T17:29:26.123Z,11.10
2023-04-18T17:31:55.419Z,10.57
2023-04-18T17:34:22.868Z,10.57
2023-04-18T17:36:50.638Z,9.40
2023-04-18T17:39:18.060Z,9.20
2023-04-18T17:41:46.254Z,11.38
2023-04-18T17:44:13.696Z,10.40
2023-04-18T17:46:41.071Z,9.90
2023-04-18T17:49:08.550Z,10.13
2023-04-18T17:51:36.014Z,10.38
2023-04-18T17:54:05.144Z,10.75
2023-04-18T17:56:32.773Z,8.43
2023-04-18T17:59:00.269Z,10.05
2023-04-18T18:01:30.276Z,9.45
2023-04-18T18:03:57.989Z,9.05
2023-04-18T18:06:27.526Z,9.43
2023-04-18T18:08:55.949Z,10.48
2023-04-18T18:11:23.892Z,9.50
2023-04-18T18:13:54.630Z,9.07
2023-04-18T18:16:24.004Z,11.23
2023-04-18T18:18:51.680Z,9.55
2023-04-18T18:21:19.391Z,9.32
2023-04-18T18:23:46.887Z,9.10
2023-04-18T18:26:14.288Z,10.55
2023-04-18T18:28:41.685Z,9.27
2023-04-18T18:31:09.116Z,10.93
2023-04-18T18:33:36.514Z,9.68
2023-04-18T18:36:04.314Z,10.88
2023-04-18T18:38:31.781Z,9.70
2023-04-18T18:41:00.995Z,11.73
2023-04-18T18:43:34.013Z,10.77
2023-04-18T18:46:01.660Z,9.10
2023-04-18T18:48:29.246Z,10.60
2023-04-18T18:50:57.283Z,10.85
2023-04-18T18:53:24.724Z,8.70
2023-04-18T18:55:52.252Z,9.05
2023-04-18T18:58:19.677Z,10.80
2023-04-18T19:00:47.130Z,10.23
2023-04-18T19:03:18.405Z,9.32
2023-04-18T19:05:46.572Z,12.80
2023-04-18T19:08:16.018Z,10.60
2023-04-18T19:10:43.416Z,9.98
2023-04-18T19:13:10.939Z,10.25
2023-04-18T19:15:38.393Z,10.77
2023-04-18T19:18:07.672Z,11.13
2023-04-18T19:20:35.468Z,12.75
2023-04-18T19:23:04.484Z,10.68
2023-04-18T19:25:31.927Z,9.32
2023-04-18T19:28:15.472Z,10.18
2023-04-18T19:30:44.048Z,12.65
2023-04-18T19:33:11.519Z,10.05
2023-04-18T19:35:38.985Z,9.98
2023-04-18T19:38:06.432Z,11.02
2023-04-18T19:40:33.784Z,9.85
2023-04-18T19:43:01.235Z,10.80
2023-04-18T19:45:30.551Z,8.90
2023-04-18T19:47:57.958Z,10.35
2023-04-18T19:50:25.323Z,11.98
2023-04-18T19:52:52.832Z,9.98
2023-04-18T19:55:20.359Z,10.13
2023-04-18T19:57:48.126Z,11.95
2023-04-18T20:00:16.024Z,8.60
2023-04-18T20:02:43.537Z,7.97
2023-04-18T20:05:12.566Z,8.23
2023-04-18T20:07:41.590Z,9.68
2023-04-18T20:10:09.541Z,8.02
2023-04-18T20:12:37.078Z,9.13
2023-04-18T20:15:05.752Z,8.60
2023-04-18T20:17:34.648Z,8.90
2023-04-18T20:20:02.948Z,8.02
2023-04-18T20:22:32.519Z,8.02
2023-04-18T20:25:01.625Z,9.13
2023-04-18T20:27:29.052Z,7.18
2023-04-18T20:29:58.032Z,7.97
2023-04-18T20:32:26.691Z,10.30
2023-04-18T20:34:55.295Z,7.97
2023-04-18T20:37:22.878Z,8.13
2023-04-18T20:39:51.434Z,8.80
2023-04-18T20:42:19.946Z,8.90
2023-04-18T20:44:47.577Z,9.18
2023-04-18T20:47:15.894Z,9.13
2023-04-18T20:49:43.591Z,7.75
2023-04-18T20:52:11.118Z,12.18
2023-04-18T20:54:38.477Z,8.98
2023-04-18T20:57:05.883Z,10.73
2023-04-18T20:59:33.260Z,8.45
2023-04-18T21:02:01.011Z,6.38
2023-04-18T21:04:28.523Z,9.13
2023-04-18T21:06:55.926Z,10.23
2023-04-18T21:09:23.341Z,7.15
2023-04-18T21:11:50.944Z,9.45
2023-04-18T21:14:18.488Z,10.13
2023-04-18T21:16:46.149Z,9.20
2023-04-18T21:19:13.477Z,10.55
2023-04-18T21:21:40.933Z,7.63
2023-04-18T21:24:08.610Z,7.70
2023-04-18T21:26:36.030Z,7.85
2023-04-18T21:29:04.962Z,7.60
2023-04-18T21:31:33.925Z,9.15
2023-04-18T21:34:03.024Z,9.07
2023-04-18T21:36:31.313Z,6.47
2023-04-18T21:39:00.980Z,8.48
2023-04-18T21:41:28.522Z,11.85
2023-04-18T21:43:55.901Z,7.00
2023-04-18T21:46:23.290Z,8.15
2023-04-18T21:48:51.079Z,9.85
2023-04-18T21:51:18.630Z,7.63
2023-04-18T21:53:46.345Z,9.02
2023-04-18T21:56:14.236Z,8.18
2023-04-18T21:58:41.533Z,9.93
2023-04-18T22:01:09.105Z,8.63
2023-04-18T22:03:36.973Z,7.50
2023-04-18T22:06:04.648Z,6.15
2023-04-18T22:08:32.519Z,7.70
2023-04-18T22:11:00.354Z,7.32
2023-04-18T22:13:33.138Z,7.22
2023-04-18T22:16:03.468Z,7.40
2023-04-18T22:18:37.610Z,6.93
2023-04-18T22:21:06.093Z,7.82
2023-04-18T22:23:33.467Z,8.13
2023-04-18T22:26:00.886Z,6.68
2023-04-18T22:28:28.476Z,8.85
2023-04-18T22:30:56.042Z,7.53
2023-04-18T22:33:23.631Z,9.68
2023-04-18T22:35:51.380Z,10.70
2023-04-18T22:38:18.761Z,7.22
2023-04-18T22:40:46.119Z,8.70
2023-04-18T22:43:13.476Z,10.75
2023-04-18T22:45:40.939Z,7.90
2023-04-18T22:48:11.463Z,7.38
2023-04-18T22:50:42.555Z,10.35
2023-04-18T22:53:14.378Z,8.82
2023-04-18T22:55:43.497Z,8.00
2023-04-18T22:58:11.580Z,8.70
2023-04-18T23:00:38.967Z,7.50
2023-04-18T23:03:06.560Z,9.43
2023-04-18T23:05:34.340Z,9.30
2023-04-18T23:08:01.983Z,10.98
2023-04-18T23:10:29.416Z,8.07
2023-04-18T23:12:56.947Z,9.02
2023-04-18T23:15:26.267Z,7.35
2023-04-18T23:17:54.156Z,8.65
2023-04-18T23:20:22.128Z,7.72
2023-04-18T23:22:51.720Z,11.70
2023-04-18T23:25:19.980Z,8.70
2023-04-18T23:27:47.835Z,8.20
2023-04-18T23:30:15.297Z,8.00
2023-04-18T23:32:42.856Z,8.30
2023-04-18T23:35:11.505Z,7.68
2023-04-18T23:37:39.025Z,9.50
2023-04-18T23:40:07.995Z,8.32
2023-04-18T23:42:35.909Z,7.82
2023-04-18T23:45:04.357Z,7.20
2023-04-18T23:47:31.926Z,9.27
2023-04-18T23:49:59.286Z,10.77
2023-04-18T23:52:26.657Z,11.48
2023-04-18T23:54:53.962Z,8.63
2023-04-18T23:57:21.394Z,7.45
2023-04-18T23:59:48.859Z,8.13
